createdAt,value
2022-11-17T00:00:37.224Z,99285.47
2022-11-17T00:03:05.427Z,99283.25
2022-11-17T00:05:38.156Z,99284.56
2022-11-17T00:08:06.446Z,99294.75
2022-11-17T00:10:35.560Z,99295.84
2022-11-17T00:13:20.979Z,99292.06
2022-11-17T00:15:49.124Z,99297.75
2022-11-17T00:18:34.548Z,99295.53
2022-11-17T00:21:21.786Z,99301.13
2022-11-17T00:23:50.699Z,99298.44
2022-11-17T00:26:21.004Z,99303.13
2022-11-17T00:28:49.450Z,99290.06
2022-11-17T00:31:34.846Z,99287.56
2022-11-17T00:34:05.926Z,99286.47
2022-11-17T00:36:37.700Z,99284.34
2022-11-17T00:39:06.479Z,99287.47
2022-11-17T00:41:34.859Z,99285.22
2022-11-17T00:44:03.151Z,99283.56
2022-11-17T00:46:31.569Z,99276.09
2022-11-17T00:48:59.998Z,99273.63
2022-11-17T00:51:28.329Z,99274.75
2022-11-17T00:53:58.310Z,99272.63
2022-11-17T00:56:26.734Z,99266.59
2022-11-17T00:58:55.513Z,99274.19
2022-11-17T01:01:24.831Z,99268.16
2022-11-17T01:04:03.007Z,99269.03
2022-11-17T01:06:33.843Z,99261.66
2022-11-17T01:09:05.653Z,99256.16
2022-11-17T01:11:34.239Z,99260.97
2022-11-17T01:14:03.091Z,99254.69
2022-11-17T01:16:32.126Z,99256.34
2022-11-17T01:19:02.105Z,99248.19
2022-11-17T01:21:31.833Z,99247.16
2022-11-17T01:24:01.914Z,99250.56
2022-11-17T01:26:33.917Z,99246.78
2022-11-17T01:29:03.157Z,99242.72
2022-11-17T01:31:33.991Z,99240.59
2022-11-17T01:34:02.751Z,99237.81
2022-11-17T01:36:52.401Z,99234.78
2022-11-17T01:39:20.783Z,99231.41
2022-11-17T01:41:50.331Z,99224.56
2022-11-17T01:44:53.882Z,99222.34
2022-11-17T01:47:27.099Z,99214.75
2022-11-17T01:49:57.942Z,99216.50
2022-11-17T01:52:29.254Z,99202.06
2022-11-17T01:55:00.286Z,99207.59
2022-11-17T01:57:34.370Z,99202.94
2022-11-17T02:00:05.677Z,99196.59
2022-11-17T02:02:35.094Z,99197.28
2022-11-17T02:05:13.632Z,99188.88
2022-11-17T02:07:44.331Z,99193.03
2022-11-17T02:10:12.719Z,99190.13
2022-11-17T02:12:42.939Z,99193.66
2022-11-17T02:15:11.671Z,99193.56
2022-11-17T02:17:41.998Z,99198.41
2022-11-17T02:20:13.596Z,99200.88
2022-11-17T02:23:07.940Z,99193.25
2022-11-17T02:25:58.820Z,99184.84
2022-11-17T02:28:31.221Z,99189.53
2022-11-17T02:31:11.156Z,99186.41
2022-11-17T02:33:54.090Z,99178.69
2022-11-17T02:36:30.736Z,99191.34
2022-11-17T02:39:07.089Z,99193.59
2022-11-17T02:41:45.117Z,99191.19
2022-11-17T02:44:22.021Z,99196.44
2022-11-17T02:46:56.027Z,99196.38
2022-11-17T02:49:28.165Z,99196.97
2022-11-17T02:51:58.741Z,99198.66
2022-11-17T02:54:30.637Z,99199.25
2022-11-17T02:56:59.124Z,99185.09
2022-11-17T02:59:35.596Z,99182.97
2022-11-17T03:02:28.517Z,99175.88
2022-11-17T03:05:08.156Z,99174.50
2022-11-17T03:07:50.268Z,99168.72
2022-11-17T03:10:22.033Z,99169.31
2022-11-17T03:12:56.511Z,99176.44
2022-11-17T03:15:33.819Z,99169.94
2022-11-17T03:18:08.965Z,99150.69
2022-11-17T03:20:43.722Z,99151.69
2022-11-17T03:23:15.512Z,99145.78
2022-11-17T03:25:51.503Z,99136.94
2022-11-17T03:28:22.910Z,99132.16
2022-11-17T03:30:55.036Z,99121.16
2022-11-17T03:33:25.469Z,99125.56
2022-11-17T03:35:59.926Z,99118.22
2022-11-17T03:38:33.506Z,99121.69
2022-11-17T03:41:04.264Z,99119.69
2022-11-17T03:43:33.404Z,99118.56
2022-11-17T03:46:07.132Z,99119.59
2022-11-17T03:48:37.415Z,99122.03
2022-11-17T03:51:09.319Z,99125.06
2022-11-17T03:53:38.248Z,99126.59
2022-11-17T03:56:16.339Z,99125.84
2022-11-17T03:58:54.574Z,99117.06
2022-11-17T04:01:24.301Z,99117.59
2022-11-17T04:03:53.441Z,99111.69
2022-11-17T04:06:21.609Z,99101.13
2022-11-17T04:08:49.835Z,99115.31
2022-11-17T04:11:35.186Z,99114.91
2022-11-17T04:14:20.889Z,99112.03
2022-11-17T04:16:50.363Z,99106.41
2022-11-17T04:19:18.443Z,99110.56
2022-11-17T04:21:46.547Z,99101.91
2022-11-17T04:24:14.652Z,99117.59
2022-11-17T04:27:00.095Z,99112.50
2022-11-17T04:29:28.721Z,99116.31
2022-11-17T04:31:58.339Z,99118.56
2022-11-17T04:34:26.584Z,99117.72
2022-11-17T04:36:54.666Z,99113.69
2022-11-17T04:39:22.722Z,99094.84
2022-11-17T04:41:57.584Z,99098.38
2022-11-17T04:44:27.527Z,99097.59
2022-11-17T04:46:58.268Z,99098.38
2022-11-17T04:49:27.787Z,99110.00
2022-11-17T04:51:56.021Z,99105.03
2022-11-17T04:54:25.791Z,99107.41
2022-11-17T04:56:54.731Z,99106.97
2022-11-17T04:59:23.166Z,99106.00
2022-11-17T05:01:51.630Z,99108.44
2022-11-17T05:04:36.163Z,99111.03
2022-11-17T05:07:04.682Z,99110.59
2022-11-17T05:09:33.023Z,99118.91
2022-11-17T05:12:18.445Z,99111.72
2022-11-17T05:14:47.797Z,99115.97
2022-11-17T05:17:14.907Z,99105.25
2022-11-17T05:19:45.579Z,99112.25
2022-11-17T05:22:33.662Z,99109.13
2022-11-17T05:25:01.997Z,99112.69
2022-11-17T05:27:30.467Z,99105.81
2022-11-17T05:29:58.628Z,99107.41
2022-11-17T05:32:26.699Z,99106.16
2022-11-17T05:34:56.133Z,99103.25
2022-11-17T05:37:24.343Z,99090.25
2022-11-17T05:39:52.396Z,99095.97
2022-11-17T05:42:20.440Z,99104.72
2022-11-17T05:44:49.097Z,99100.09
2022-11-17T05:47:17.240Z,99108.41
2022-11-17T05:49:45.307Z,99097.78
2022-11-17T05:52:14.777Z,99098.72
2022-11-17T05:54:42.890Z,99090.16
2022-11-17T05:57:14.449Z,99086.09
2022-11-17T05:59:47.865Z,99083.91
2022-11-17T06:02:21.154Z,99084.19
2022-11-17T06:04:51.296Z,99088.59
2022-11-17T06:07:21.314Z,99090.44
2022-11-17T06:09:52.308Z,99093.72
2022-11-17T06:12:20.354Z,99093.56
2022-11-17T06:14:49.513Z,99097.72
2022-11-17T06:17:22.747Z,99086.72
2022-11-17T06:19:56.406Z,99092.69
2022-11-17T06:22:26.728Z,99082.50
2022-11-17T06:24:55.694Z,99072.22
2022-11-17T06:27:25.616Z,99076.25
2022-11-17T06:29:55.185Z,99062.63
2022-11-17T06:32:23.595Z,99061.25
2022-11-17T06:34:56.180Z,99058.31
2022-11-17T06:37:26.328Z,99079.28
2022-11-17T06:39:54.736Z,99074.38
2022-11-17T06:42:44.027Z,99067.16
2022-11-17T06:45:13.213Z,99067.31
2022-11-17T06:47:41.303Z,99059.72
2022-11-17T06:50:10.236Z,99059.13
2022-11-17T06:52:40.187Z,99058.50
2022-11-17T06:55:09.577Z,99052.47
2022-11-17T06:57:37.688Z,99062.59
2022-11-17T07:00:07.365Z,99070.41
2022-11-17T07:02:36.767Z,99055.78
2022-11-17T07:05:05.196Z,99047.84
2022-11-17T07:07:33.593Z,99046.44
2022-11-17T07:10:03.270Z,99034.44
2022-11-17T07:12:31.368Z,99033.38
2022-11-17T07:14:59.589Z,99037.56
2022-11-17T07:17:29.153Z,99029.56
2022-11-17T07:19:57.281Z,99024.63
2022-11-17T07:22:25.360Z,99023.22
2022-11-17T07:24:53.535Z,99016.47
2022-11-17T07:27:23.023Z,99017.34
2022-11-17T07:29:53.917Z,99013.63
2022-11-17T07:32:22.224Z,99011.25
2022-11-17T07:34:50.345Z,99011.63
2022-11-17T07:37:19.543Z,98993.69
2022-11-17T07:39:47.633Z,98999.09
2022-11-17T07:42:15.716Z,98990.00
2022-11-17T07:44:45.196Z,98993.53
2022-11-17T07:47:13.431Z,98987.56
2022-11-17T07:49:41.527Z,98983.91
2022-11-17T07:52:09.633Z,98975.25
2022-11-17T07:54:37.729Z,98979.94
2022-11-17T07:57:05.892Z,98983.97
2022-11-17T07:59:34.426Z,98982.53
2022-11-17T08:02:04.002Z,98972.97
2022-11-17T08:04:32.105Z,98968.16
2022-11-17T08:07:00.324Z,98970.88
2022-11-17T08:09:28.433Z,98968.25
2022-11-17T08:11:57.658Z,98972.91
2022-11-17T08:14:25.744Z,98963.69
2022-11-17T08:16:53.889Z,98951.44
2022-11-17T08:19:23.344Z,98955.00
2022-11-17T08:21:51.773Z,98960.09
2022-11-17T08:24:19.872Z,98956.34
2022-11-17T08:26:47.975Z,98962.84
2022-11-17T08:29:16.187Z,98957.72
2022-11-17T08:31:46.327Z,98947.34
2022-11-17T08:34:14.771Z,98949.28
2022-11-17T08:36:44.322Z,98954.41
2022-11-17T08:39:12.583Z,98953.75
2022-11-17T08:41:40.684Z,98950.38
2022-11-17T08:44:08.866Z,98956.19
2022-11-17T08:46:37.071Z,98959.31
2022-11-17T08:49:05.162Z,98953.16
2022-11-17T08:51:33.288Z,98952.44
2022-11-17T08:54:02.882Z,98958.25
2022-11-17T08:56:31.052Z,98954.38
2022-11-17T08:58:59.283Z,98945.09
2022-11-17T09:01:27.474Z,98957.09
2022-11-17T09:03:55.621Z,98949.34
2022-11-17T09:06:23.733Z,98947.38
2022-11-17T09:08:55.035Z,98945.03
2022-11-17T09:11:25.243Z,98937.28
2022-11-17T09:13:53.310Z,98938.06
2022-11-17T09:16:24.070Z,98933.06
2022-11-17T09:18:57.041Z,98937.34
2022-11-17T09:21:26.257Z,98935.00
2022-11-17T09:23:55.361Z,98930.72
2022-11-17T09:26:25.181Z,98927.22
2022-11-17T09:28:53.436Z,98917.19
2022-11-17T09:31:23.405Z,98918.34
2022-11-17T09:33:51.635Z,98904.41
2022-11-17T09:36:19.761Z,98905.19
2022-11-17T09:38:48.226Z,98906.38
2022-11-17T09:41:40.115Z,98898.69
2022-11-17T09:44:19.519Z,98901.78
2022-11-17T09:46:57.406Z,98909.91
2022-11-17T09:49:36.793Z,98906.44
2022-11-17T09:52:15.357Z,98907.97
2022-11-17T09:54:48.529Z,98919.56
2022-11-17T09:57:23.987Z,98923.81
2022-11-17T10:00:05.103Z,98931.19
2022-11-17T10:02:33.578Z,98934.97
2022-11-17T10:05:02.005Z,98936.50
2022-11-17T10:07:32.861Z,98925.22
2022-11-17T10:10:04.652Z,98928.28
2022-11-17T10:12:41.997Z,98920.19
2022-11-17T10:15:23.293Z,98913.97
2022-11-17T10:17:52.177Z,98910.06
2022-11-17T10:20:20.449Z,98914.66
2022-11-17T10:22:49.786Z,98922.38
2022-11-17T10:25:38.847Z,98919.25
2022-11-17T10:28:28.274Z,98920.78
2022-11-17T10:31:00.245Z,98928.44
2022-11-17T10:33:38.591Z,98927.31
2022-11-17T10:36:15.585Z,98933.47
2022-11-17T10:38:46.381Z,98930.41
2022-11-17T10:41:19.010Z,98933.13
2022-11-17T10:43:58.084Z,98932.78
2022-11-17T10:46:27.204Z,98940.13
2022-11-17T10:49:00.733Z,98942.06
2022-11-17T10:51:29.943Z,98943.22
2022-11-17T10:54:07.477Z,98948.16
2022-11-17T10:56:41.714Z,98934.22
2022-11-17T10:59:21.300Z,98931.34
2022-11-17T11:01:52.128Z,98949.44
2022-11-17T11:04:32.522Z,98940.94
2022-11-17T11:07:09.699Z,98945.84
2022-11-17T11:09:42.713Z,98934.75
2022-11-17T11:12:16.433Z,98930.84
2022-11-17T11:14:52.332Z,98934.97
2022-11-17T11:17:21.093Z,98933.56
2022-11-17T11:19:53.752Z,98931.59
2022-11-17T11:22:38.069Z,98931.97
2022-11-17T11:25:26.322Z,98925.13
2022-11-17T11:28:05.971Z,98922.75
2022-11-17T11:30:42.495Z,98924.28
2022-11-17T11:33:34.457Z,98928.88
2022-11-17T11:36:15.374Z,98929.28
2022-11-17T11:38:56.277Z,98922.75
2022-11-17T11:41:50.117Z,98925.44
2022-11-17T11:44:31.746Z,98925.00
2022-11-17T11:47:12.501Z,98924.19
2022-11-17T11:49:46.999Z,98916.97
2022-11-17T11:52:20.887Z,98908.34
2022-11-17T11:54:55.409Z,98907.88
2022-11-17T11:57:30.204Z,98903.69
2022-11-17T12:00:04.420Z,98907.16
2022-11-17T12:02:43.662Z,98897.03
2022-11-17T12:05:22.972Z,98894.69
2022-11-17T12:07:54.270Z,98886.97
2022-11-17T12:10:30.087Z,98892.69
2022-11-17T12:12:59.325Z,98886.53
2022-11-17T12:15:39.362Z,98884.59
2022-11-17T12:18:14.786Z,98886.84
2022-11-17T12:20:56.429Z,98893.44
2022-11-17T12:23:33.811Z,98887.66
2022-11-17T12:26:03.167Z,98892.91
2022-11-17T12:28:35.825Z,98897.94
2022-11-17T12:31:10.185Z,98911.59
2022-11-17T12:34:12.334Z,98922.63
2022-11-17T12:36:42.057Z,98908.31
2022-11-17T12:39:48.428Z,98916.41
2022-11-17T12:42:16.542Z,98909.88
2022-11-17T12:44:52.059Z,98897.44
2022-11-17T12:47:22.212Z,98911.28
2022-11-17T12:50:05.680Z,98916.41
2022-11-17T12:52:47.177Z,98921.03
2022-11-17T12:55:22.625Z,98927.47
2022-11-17T12:57:59.315Z,98919.75
2022-11-17T13:00:30.254Z,98929.31
2022-11-17T13:03:02.967Z,98925.56
2022-11-17T13:05:31.534Z,98931.34
2022-11-17T13:08:22.512Z,98933.09
2022-11-17T13:10:51.703Z,98932.75
2022-11-17T13:13:21.698Z,98932.66
2022-11-17T13:15:52.478Z,98930.41
2022-11-17T13:18:31.111Z,98937.66
2022-11-17T13:20:59.830Z,98929.91
2022-11-17T13:23:30.589Z,98937.31
2022-11-17T13:26:12.859Z,98936.59
2022-11-17T13:28:40.948Z,98942.63
2022-11-17T13:31:18.106Z,98947.78
2022-11-17T13:33:57.050Z,98945.81
2022-11-17T13:36:27.457Z,98945.25
2022-11-17T13:39:00.479Z,98945.97
2022-11-17T13:41:33.663Z,98947.22
2022-11-17T13:44:02.446Z,98952.00
2022-11-17T13:46:30.562Z,98960.88
2022-11-17T13:48:58.668Z,98944.28
2022-11-17T13:51:38.612Z,98953.44
2022-11-17T13:54:17.921Z,98961.59
2022-11-17T13:56:52.762Z,98964.84
2022-11-17T13:59:26.252Z,98959.16
2022-11-17T14:02:24.423Z,98970.06
2022-11-17T14:05:07.858Z,98964.25
2022-11-17T14:07:37.762Z,98959.16
2022-11-17T14:10:29.436Z,98972.81
2022-11-17T14:13:22.099Z,98970.41
2022-11-17T14:15:59.462Z,98965.75
2022-11-17T14:18:30.799Z,98969.44
2022-11-17T14:21:11.688Z,98962.44
2022-11-17T14:23:39.988Z,98970.47
2022-11-17T14:26:24.389Z,98975.38
2022-11-17T14:28:53.298Z,98970.72
2022-11-17T14:31:21.401Z,98987.69
2022-11-17T14:33:50.562Z,98985.66
2022-11-17T14:36:19.244Z,98994.88
2022-11-17T14:38:47.993Z,98990.16
2022-11-17T14:41:19.039Z,98996.03
2022-11-17T14:43:47.950Z,98999.66
2022-11-17T14:46:21.202Z,99002.31
2022-11-17T14:48:49.281Z,99000.78
2022-11-17T14:51:17.976Z,99000.03
2022-11-17T14:53:46.724Z,99005.75
2022-11-17T14:56:18.970Z,99011.88
2022-11-17T14:58:47.802Z,99017.97
2022-11-17T15:01:18.859Z,99022.44
2022-11-17T15:03:47.606Z,99030.88
2022-11-17T15:06:19.891Z,99027.78
2022-11-17T15:08:49.140Z,99028.06
2022-11-17T15:11:19.394Z,99032.38
2022-11-17T15:13:47.647Z,99038.03
2022-11-17T15:16:15.811Z,99036.78
2022-11-17T15:18:46.710Z,99038.81
2022-11-17T15:21:16.106Z,99044.41
2022-11-17T15:23:45.143Z,99030.59
2022-11-17T15:26:15.680Z,99040.91
2022-11-17T15:28:45.303Z,99041.38
2022-11-17T15:31:14.932Z,99045.06
2022-11-17T15:33:43.784Z,99054.22
2022-11-17T15:36:13.745Z,99049.53
2022-11-17T15:38:45.356Z,99042.28
2022-11-17T15:41:14.523Z,99049.19
2022-11-17T15:43:45.806Z,99048.34
2022-11-17T15:46:15.411Z,99053.75
2022-11-17T15:48:46.449Z,99058.59
2022-11-17T15:51:16.214Z,99065.31
2022-11-17T15:53:46.440Z,99059.03
2022-11-17T15:56:16.742Z,99061.91
2022-11-17T15:58:47.285Z,99069.75
2022-11-17T16:01:17.247Z,99066.25
2022-11-17T16:03:46.508Z,99070.81
2022-11-17T16:06:14.628Z,99077.59
2022-11-17T16:08:43.118Z,99075.31
2022-11-17T16:11:12.081Z,99080.28
2022-11-17T16:13:40.401Z,99085.91
2022-11-17T16:16:15.404Z,99085.84
2022-11-17T16:18:43.654Z,99089.97
2022-11-17T16:21:13.953Z,99093.06
2022-11-17T16:23:43.184Z,99097.72
2022-11-17T16:26:14.690Z,99094.78
2022-11-17T16:28:43.644Z,99100.06
2022-11-17T16:31:18.513Z,99109.31
2022-11-17T16:33:50.514Z,99114.69
2022-11-17T16:36:19.328Z,99110.72
2022-11-17T16:39:00.416Z,99112.63
2022-11-17T16:41:31.958Z,99114.28
2022-11-17T16:44:00.543Z,99117.09
2022-11-17T16:46:32.334Z,99119.72
2022-11-17T16:49:03.286Z,99116.69
2022-11-17T16:51:31.554Z,99118.84
2022-11-17T16:54:02.108Z,99122.03
2022-11-17T16:56:30.569Z,99113.72
2022-11-17T16:58:59.824Z,99126.78
2022-11-17T17:01:31.978Z,99123.34
2022-11-17T17:04:01.747Z,99129.59
2022-11-17T17:06:30.523Z,99123.19
2022-11-17T17:09:00.254Z,99123.19
2022-11-17T17:11:31.483Z,99130.78
2022-11-17T17:14:00.338Z,99129.06
2022-11-17T17:16:30.774Z,99139.09
2022-11-17T17:19:00.441Z,99141.53
2022-11-17T17:21:29.599Z,99143.63
2022-11-17T17:23:58.547Z,99141.34
2022-11-17T17:26:28.561Z,99150.75
2022-11-17T17:28:58.280Z,99151.38
2022-11-17T17:31:27.778Z,99155.72
2022-11-17T17:33:57.642Z,99157.50
2022-11-17T17:36:26.413Z,99158.47
2022-11-17T17:38:56.449Z,99155.16
2022-11-17T17:41:26.372Z,99162.06
2022-11-17T17:43:59.108Z,99161.50
2022-11-17T17:46:29.752Z,99171.44
2022-11-17T17:48:59.859Z,99172.72
2022-11-17T17:51:29.724Z,99170.78
2022-11-17T17:54:01.109Z,99183.72
2022-11-17T17:56:30.595Z,99184.41
2022-11-17T17:58:59.249Z,99183.03
2022-11-17T18:01:28.942Z,99177.59
2022-11-17T18:04:04.463Z,99184.69
2022-11-17T18:06:36.375Z,99181.88
2022-11-17T18:09:04.913Z,99190.34
2022-11-17T18:11:33.942Z,99179.53
2022-11-17T18:14:02.344Z,99181.09
2022-11-17T18:16:32.605Z,99176.09
2022-11-17T18:19:04.059Z,99182.56
2022-11-17T18:21:32.601Z,99174.25
2022-11-17T18:24:02.140Z,99182.47
2022-11-17T18:26:31.782Z,99188.59
2022-11-17T18:29:01.585Z,99193.56
2022-11-17T18:31:32.381Z,99196.16
2022-11-17T18:34:03.714Z,99200.31
2022-11-17T18:36:32.489Z,99197.19
2022-11-17T18:39:00.770Z,99198.84
2022-11-17T18:41:31.067Z,99201.28
2022-11-17T18:43:59.539Z,99206.31
2022-11-17T18:46:30.454Z,99204.34
2022-11-17T18:48:59.346Z,99205.03
2022-11-17T18:51:30.808Z,99214.06
2022-11-17T18:54:01.492Z,99208.91
2022-11-17T18:56:33.405Z,99208.50
2022-11-17T18:59:02.213Z,99212.84
2022-11-17T19:01:31.889Z,99212.16
2022-11-17T19:04:01.596Z,99213.25
2022-11-17T19:06:32.952Z,99206.69
2022-11-17T19:09:01.884Z,99212.47
2022-11-17T19:11:33.077Z,99221.22
2022-11-17T19:14:03.242Z,99213.72
2022-11-17T19:16:32.098Z,99218.28
2022-11-17T19:19:00.875Z,99215.59
2022-11-17T19:21:33.901Z,99204.84
2022-11-17T19:24:04.515Z,99214.81
2022-11-17T19:26:34.440Z,99215.00
2022-11-17T19:29:04.754Z,99214.53
2022-11-17T19:31:33.833Z,99210.00
2022-11-17T19:34:02.061Z,99207.50
2022-11-17T19:36:33.486Z,99209.94
2022-11-17T19:39:03.503Z,99211.41
2022-11-17T19:41:34.563Z,99214.53
2022-11-17T19:44:05.253Z,99210.09
2022-11-17T19:46:34.338Z,99205.25
2022-11-17T19:49:02.745Z,99215.13
2022-11-17T19:51:34.099Z,99206.38
2022-11-17T19:54:03.705Z,99224.78
2022-11-17T19:56:32.081Z,99225.81
2022-11-17T19:59:01.533Z,99223.19
2022-11-17T20:01:31.100Z,99228.06
2022-11-17T20:04:00.619Z,99235.16
2022-11-17T20:06:30.686Z,99227.44
2022-11-17T20:09:00.459Z,99232.47
2022-11-17T20:11:30.056Z,99228.75
2022-11-17T20:13:58.443Z,99232.72
2022-11-17T20:16:28.429Z,99232.19
2022-11-17T20:18:58.654Z,99234.47
2022-11-17T20:21:27.787Z,99239.66
2022-11-17T20:23:56.186Z,99239.69
2022-11-17T20:26:27.705Z,99230.59
2022-11-17T20:28:55.919Z,99231.06
2022-11-17T20:31:26.057Z,99234.78
2022-11-17T20:33:57.658Z,99232.31
2022-11-17T20:36:26.050Z,99237.31
2022-11-17T20:38:55.438Z,99243.38
2022-11-17T20:41:25.477Z,99241.03
2022-11-17T20:43:55.053Z,99255.31
2022-11-17T20:46:24.108Z,99249.50
2022-11-17T20:48:52.651Z,99255.56
2022-11-17T20:51:21.896Z,99258.38
2022-11-17T20:53:51.384Z,99256.22
2022-11-17T20:56:20.404Z,99251.75
2022-11-17T20:58:50.136Z,99255.13
2022-11-17T21:01:20.689Z,99262.06
2022-11-17T21:03:50.120Z,99255.03
2022-11-17T21:06:18.912Z,99255.16
2022-11-17T21:08:47.737Z,99248.00
2022-11-17T21:11:32.025Z,99248.56
2022-11-17T21:14:02.195Z,99260.50
2022-11-17T21:16:30.545Z,99260.72
2022-11-17T21:18:58.940Z,99263.94
2022-11-17T21:21:27.128Z,99270.28
2022-11-17T21:23:55.800Z,99266.59
2022-11-17T21:26:24.699Z,99282.13
2022-11-17T21:28:53.374Z,99279.31
2022-11-17T21:31:24.656Z,99285.66
2022-11-17T21:33:54.461Z,99285.53
2022-11-17T21:36:24.148Z,99283.88
2022-11-17T21:38:52.538Z,99287.19
2022-11-17T21:41:22.992Z,99304.25
2022-11-17T21:43:52.878Z,99297.72
2022-11-17T21:46:24.037Z,99305.34
2022-11-17T21:48:53.142Z,99308.38
2022-11-17T21:51:23.053Z,99309.06
2022-11-17T21:53:54.272Z,99312.31
2022-11-17T21:56:25.704Z,99313.44
2022-11-17T21:58:55.866Z,99314.81
2022-11-17T22:01:25.940Z,99322.50
2022-11-17T22:03:54.417Z,99319.03
2022-11-17T22:06:25.664Z,99316.69
2022-11-17T22:08:55.374Z,99328.88
2022-11-17T22:11:36.858Z,99313.09
2022-11-17T22:14:10.779Z,99321.25
2022-11-17T22:16:41.456Z,99316.00
2022-11-17T22:19:10.382Z,99322.72
2022-11-17T22:21:39.646Z,99325.94
2022-11-17T22:24:11.912Z,99319.22
2022-11-17T22:26:41.402Z,99321.56
2022-11-17T22:29:12.704Z,99330.63
2022-11-17T22:31:42.695Z,99334.44
2022-11-17T22:34:10.914Z,99333.31
2022-11-17T22:36:39.048Z,99342.84
2022-11-17T22:39:07.760Z,99342.84
2022-11-17T22:41:36.227Z,99343.03
2022-11-17T22:44:04.378Z,99349.97
2022-11-17T22:46:32.437Z,99349.22
2022-11-17T22:49:01.937Z,99362.66
2022-11-17T22:51:47.553Z,99363.63
2022-11-17T22:54:15.650Z,99362.56
2022-11-17T22:56:44.019Z,99358.84
2022-11-17T22:59:12.184Z,99367.69
2022-11-17T23:01:40.214Z,99357.75
2022-11-17T23:04:09.760Z,99370.84
2022-11-17T23:06:37.802Z,99364.56
2022-11-17T23:09:05.886Z,99366.47
2022-11-17T23:11:38.332Z,99368.81
2022-11-17T23:14:08.011Z,99370.72
2022-11-17T23:16:36.850Z,99377.88
2022-11-17T23:19:05.630Z,99382.47
2022-11-17T23:21:35.072Z,99385.91
2022-11-17T23:24:03.732Z,99387.16
2022-11-17T23:26:32.844Z,99389.72
2022-11-17T23:29:00.941Z,99387.69
2022-11-17T23:31:29.005Z,99377.09
2022-11-17T23:33:57.079Z,99374.19
2022-11-17T23:36:25.135Z,99382.91
2022-11-17T23:38:56.967Z,99384.38
2022-11-17T23:41:25.195Z,99382.13
2022-11-17T23:43:54.340Z,99386.06
2022-11-17T23:46:25.824Z,99395.97
2022-11-17T23:48:55.204Z,99385.25
2022-11-17T23:51:26.054Z,99392.38
2022-11-17T23:53:55.518Z,99399.66
2022-11-17T23:56:24.132Z,99402.44
2022-11-17T23:58:52.951Z,99404.69
